sensor_id;sensor_type;location;lat;lon;timestamp;pressure;altitude;pressure_sealevel;temperature;humidity
50790;BME280;37287;47.554;7.844;2023-06-26T00:01:18;97882.28;;;18.82;81.01
50790;BME280;37287;47.554;7.844;2023-06-26T00:03:48;97877.47;;;18.86;80.62
50790;BME280;37287;47.554;7.844;2023-06-26T00:06:15;97883.25;;;18.75;80.96
50790;BME280;37287;47.554;7.844;2023-06-26T00:08:42;97889.06;;;18.77;82.33
50790;BME280;37287;47.554;7.844;2023-06-26T00:11:09;97885.56;;;18.60;82.08
50790;BME280;37287;47.554;7.844;2023-06-26T00:13:36;97882.75;;;18.64;81.92
50790;BME280;37287;47.554;7.844;2023-06-26T00:16:05;97889.34;;;18.66;81.44
50790;BME280;37287;47.554;7.844;2023-06-26T00:18:35;97892.00;;;18.53;82.06
50790;BME280;37287;47.554;7.844;2023-06-26T00:21:01;97892.59;;;18.61;82.45
50790;BME280;37287;47.554;7.844;2023-06-26T00:23:28;97896.22;;;18.58;80.82
50790;BME280;37287;47.554;7.844;2023-06-26T00:26:00;97887.97;;;18.58;78.79
50790;BME280;37287;47.554;7.844;2023-06-26T00:28:27;97894.31;;;18.55;78.52
50790;BME280;37287;47.554;7.844;2023-06-26T00:30:54;97893.47;;;18.58;78.46
50790;BME280;37287;47.554;7.844;2023-06-26T00:33:20;97896.88;;;18.46;78.96
50790;BME280;37287;47.554;7.844;2023-06-26T00:38:15;97890.97;;;18.64;78.70
50790;BME280;37287;47.554;7.844;2023-06-26T00:40:43;97894.16;;;18.62;78.56
50790;BME280;37287;47.554;7.844;2023-06-26T00:43:10;97896.13;;;18.45;80.05
50790;BME280;37287;47.554;7.844;2023-06-26T00:45:36;97898.59;;;18.39;82.36
50790;BME280;37287;47.554;7.844;2023-06-26T00:48:11;97898.16;;;18.25;82.80
50790;BME280;37287;47.554;7.844;2023-06-26T00:50:41;97891.13;;;18.24;83.20
50790;BME280;37287;47.554;7.844;2023-06-26T00:53:12;97891.97;;;18.20;82.81
50790;BME280;37287;47.554;7.844;2023-06-26T00:55:38;97894.75;;;18.37;85.31
50790;BME280;37287;47.554;7.844;2023-06-26T00:58:05;97894.72;;;18.53;82.25
50790;BME280;37287;47.554;7.844;2023-06-26T01:00:32;97885.94;;;18.62;83.34
50790;BME280;37287;47.554;7.844;2023-06-26T01:02:59;97893.47;;;18.42;79.91
50790;BME280;37287;47.554;7.844;2023-06-26T01:05:28;97894.13;;;18.29;78.60
50790;BME280;37287;47.554;7.844;2023-06-26T01:07:57;97891.38;;;18.13;79.13
50790;BME280;37287;47.554;7.844;2023-06-26T01:10:26;97898.09;;;17.92;79.97
50790;BME280;37287;47.554;7.844;2023-06-26T01:12:57;97903.06;;;17.77;79.90
50790;BME280;37287;47.554;7.844;2023-06-26T01:15:24;97902.53;;;17.65;80.13
50790;BME280;37287;47.554;7.844;2023-06-26T01:17:50;97895.16;;;17.62;79.46
50790;BME280;37287;47.554;7.844;2023-06-26T01:20:20;97892.34;;;17.66;78.47
50790;BME280;37287;47.554;7.844;2023-06-26T01:22:58;97897.94;;;17.59;79.08
50790;BME280;37287;47.554;7.844;2023-06-26T01:26:39;97894.81;;;17.60;80.74
50790;BME280;37287;47.554;7.844;2023-06-26T01:28:43;97899.84;;;17.82;80.90
50790;BME280;37287;47.554;7.844;2023-06-26T01:31:12;97897.72;;;17.90;79.60
50790;BME280;37287;47.554;7.844;2023-06-26T01:33:40;97891.63;;;18.02;80.97
50790;BME280;37287;47.554;7.844;2023-06-26T01:36:08;97894.28;;;17.85;78.34
50790;BME280;37287;47.554;7.844;2023-06-26T01:38:34;97895.16;;;17.62;79.18
50790;BME280;37287;47.554;7.844;2023-06-26T01:41:02;97889.06;;;17.55;79.32
50790;BME280;37287;47.554;7.844;2023-06-26T01:43:38;97894.81;;;17.60;80.20
50790;BME280;37287;47.554;7.844;2023-06-26T01:49:08;97889.06;;;17.55;82.36
50790;BME280;37287;47.554;7.844;2023-06-26T01:51:42;97878.59;;;17.49;82.87
50790;BME280;37287;47.554;7.844;2023-06-26T01:54:17;97886.72;;;17.53;83.96
50790;BME280;37287;47.554;7.844;2023-06-26T01:56:45;97887.69;;;17.63;85.62
50790;BME280;37287;47.554;7.844;2023-06-26T01:59:15;97885.97;;;17.52;85.26
50790;BME280;37287;47.554;7.844;2023-06-26T02:01:43;97887.56;;;17.50;86.70
50790;BME280;37287;47.554;7.844;2023-06-26T02:04:11;97895.63;;;17.57;88.37
50790;BME280;37287;47.554;7.844;2023-06-26T02:06:38;97891.31;;;17.40;88.31
50790;BME280;37287;47.554;7.844;2023-06-26T02:09:05;97892.16;;;17.36;91.93
50790;BME280;37287;47.554;7.844;2023-06-26T02:11:31;97898.72;;;17.19;90.80
50790;BME280;37287;47.554;7.844;2023-06-26T02:13:59;97899.09;;;17.21;90.94
50790;BME280;37287;47.554;7.844;2023-06-26T02:16:26;97893.38;;;17.12;91.32
50790;BME280;37287;47.554;7.844;2023-06-26T02:18:53;97891.06;;;17.10;91.90
50790;BME280;37287;47.554;7.844;2023-06-26T02:21:19;97892.66;;;17.08;91.91
50790;BME280;37287;47.554;7.844;2023-06-26T02:23:46;97893.22;;;16.99;92.92
50790;BME280;37287;47.554;7.844;2023-06-26T02:26:13;97896.09;;;16.92;94.28
50790;BME280;37287;47.554;7.844;2023-06-26T02:28:40;97897.69;;;16.89;95.51
50790;BME280;37287;47.554;7.844;2023-06-26T02:31:06;97890.75;;;16.81;96.00
50790;BME280;37287;47.554;7.844;2023-06-26T02:33:33;97899.50;;;16.72;96.60
50790;BME280;37287;47.554;7.844;2023-06-26T02:36:00;97893.09;;;16.82;96.07
50790;BME280;37287;47.554;7.844;2023-06-26T02:38:26;97894.09;;;16.92;96.28
50790;BME280;37287;47.554;7.844;2023-06-26T02:40:53;97898.78;;;16.95;95.83
50790;BME280;37287;47.554;7.844;2023-06-26T02:43:20;97904.66;;;16.94;94.73
50790;BME280;37287;47.554;7.844;2023-06-26T02:45:46;97906.81;;;16.79;95.62
50790;BME280;37287;47.554;7.844;2023-06-26T02:48:13;97908.72;;;16.82;96.92
50790;BME280;37287;47.554;7.844;2023-06-26T02:50:40;97904.56;;;16.97;99.33
50790;BME280;37287;47.554;7.844;2023-06-26T02:53:06;97908.38;;;17.04;97.89
50790;BME280;37287;47.554;7.844;2023-06-26T02:55:34;97903.97;;;17.10;97.42
50790;BME280;37287;47.554;7.844;2023-06-26T02:58:02;97909.91;;;17.05;95.12
50790;BME280;37287;47.554;7.844;2023-06-26T03:00:29;97905.88;;;17.13;97.15
50790;BME280;37287;47.554;7.844;2023-06-26T03:02:56;97911.47;;;17.06;97.07
50790;BME280;37287;47.554;7.844;2023-06-26T03:05:23;97904.25;;;16.68;97.22
50790;BME280;37287;47.554;7.844;2023-06-26T03:07:52;97910.13;;;16.66;97.90
50790;BME280;37287;47.554;7.844;2023-06-26T03:10:18;97906.47;;;16.53;98.02
50790;BME280;37287;47.554;7.844;2023-06-26T03:12:45;97911.81;;;16.60;99.43
50790;BME280;37287;47.554;7.844;2023-06-26T03:15:12;97906.69;;;16.62;98.67
50790;BME280;37287;47.554;7.844;2023-06-26T03:17:39;97909.91;;;16.57;98.68
50790;BME280;37287;47.554;7.844;2023-06-26T03:20:06;97907.75;;;16.45;99.34
50790;BME280;37287;47.554;7.844;2023-06-26T03:22:33;97901.72;;;16.30;100.00
50790;BME280;37287;47.554;7.844;2023-06-26T03:25:01;97907.34;;;16.19;100.00
50790;BME280;37287;47.554;7.844;2023-06-26T03:27:28;97910.50;;;16.18;100.00
50790;BME280;37287;47.554;7.844;2023-06-26T03:29:57;97908.38;;;16.02;100.00
50790;BME280;37287;47.554;7.844;2023-06-26T03:32:30;97910.38;;;15.97;100.00
50790;BME280;37287;47.554;7.844;2023-06-26T03:34:56;97906.03;;;16.00;100.00
50790;BME280;37287;47.554;7.844;2023-06-26T03:37:23;97910.19;;;16.12;100.00
50790;BME280;37287;47.554;7.844;2023-06-26T03:39:50;97921.56;;;16.07;100.00
50790;BME280;37287;47.554;7.844;2023-06-26T03:42:18;97919.34;;;15.98;100.00
50790;BME280;37287;47.554;7.844;2023-06-26T03:44:46;97920.94;;;15.95;100.00
50790;BME280;37287;47.554;7.844;2023-06-26T03:47:13;97923.94;;;16.05;100.00
50790;BME280;37287;47.554;7.844;2023-06-26T03:49:39;97924.41;;;15.99;100.00
50790;BME280;37287;47.554;7.844;2023-06-26T03:52:06;97923.25;;;15.97;100.00
50790;BME280;37287;47.554;7.844;2023-06-26T03:54:34;97916.31;;;15.92;100.00
50790;BME280;37287;47.554;7.844;2023-06-26T03:57:03;97926.44;;;15.92;100.00
50790;BME280;37287;47.554;7.844;2023-06-26T03:59:29;97924.03;;;15.97;100.00
50790;BME280;37287;47.554;7.844;2023-06-26T04:01:56;97927.34;;;16.12;100.00
50790;BME280;37287;47.554;7.844;2023-06-26T04:04:24;97929.94;;;16.23;100.00
50790;BME280;37287;47.554;7.844;2023-06-26T04:06:51;97931.22;;;16.42;100.00
50790;BME280;37287;47.554;7.844;2023-06-26T04:09:17;97938.28;;;16.91;100.00
50790;BME280;37287;47.554;7.844;2023-06-26T04:11:45;97929.84;;;17.49;100.00
50790;BME280;37287;47.554;7.844;2023-06-26T04:14:12;97940.72;;;17.93;97.54
50790;BME280;37287;47.554;7.844;2023-06-26T04:16:41;97938.50;;;18.24;94.65
50790;BME280;37287;47.554;7.844;2023-06-26T04:19:08;97938.59;;;18.53;92.16
50790;BME280;37287;47.554;7.844;2023-06-26T04:21:36;97942.38;;;18.76;90.93
50790;BME280;37287;47.554;7.844;2023-06-26T04:24:03;97944.47;;;19.05;88.94
50790;BME280;37287;47.554;7.844;2023-06-26T04:26:30;97946.63;;;19.27;87.33
50790;BME280;37287;47.554;7.844;2023-06-26T04:28:56;97940.28;;;19.30;86.71
50790;BME280;37287;47.554;7.844;2023-06-26T04:31:23;97943.66;;;19.50;86.13
50790;BME280;37287;47.554;7.844;2023-06-26T04:33:50;97949.72;;;19.58;85.79
50790;BME280;37287;47.554;7.844;2023-06-26T04:36:17;97947.22;;;19.93;85.25
50790;BME280;37287;47.554;7.844;2023-06-26T04:38:44;97948.13;;;20.28;83.52
50790;BME280;37287;47.554;7.844;2023-06-26T04:41:11;97949.34;;;20.53;82.96
50790;BME280;37287;47.554;7.844;2023-06-26T04:43:37;97955.94;;;20.82;82.04
50790;BME280;37287;47.554;7.844;2023-06-26T04:46:04;97953.63;;;20.93;81.38
50790;BME280;37287;47.554;7.844;2023-06-26T04:48:33;97958.63;;;21.07;80.97
50790;BME280;37287;47.554;7.844;2023-06-26T04:51:00;97957.56;;;20.92;80.93
50790;BME280;37287;47.554;7.844;2023-06-26T04:53:27;97955.41;;;21.22;80.86
50790;BME280;37287;47.554;7.844;2023-06-26T04:55:53;97955.19;;;21.51;79.64
50790;BME280;37287;47.554;7.844;2023-06-26T04:58:22;97953.41;;;21.79;78.19
50790;BME280;37287;47.554;7.844;2023-06-26T05:00:49;97949.34;;;21.27;79.04
50790;BME280;37287;47.554;7.844;2023-06-26T05:03:17;97944.47;;;21.66;78.71
50790;BME280;37287;47.554;7.844;2023-06-26T05:05:44;97951.22;;;21.74;78.16
50790;BME280;37287;47.554;7.844;2023-06-26T05:10:42;97937.69;;;22.52;75.80
50790;BME280;37287;47.554;7.844;2023-06-26T05:13:08;97947.22;;;22.60;74.30
50790;BME280;37287;47.554;7.844;2023-06-26T05:15:35;97941.91;;;22.75;74.10
50790;BME280;37287;47.554;7.844;2023-06-26T05:18:02;97951.44;;;22.83;74.13
50790;BME280;37287;47.554;7.844;2023-06-26T05:20:30;97950.81;;;22.79;73.61
50790;BME280;37287;47.554;7.844;2023-06-26T05:23:00;97949.34;;;23.06;72.96
50790;BME280;37287;47.554;7.844;2023-06-26T05:25:28;97946.25;;;22.95;73.56
50790;BME280;37287;47.554;7.844;2023-06-26T05:27:56;97950.75;;;23.20;72.98
50790;BME280;37287;47.554;7.844;2023-06-26T05:30:26;97948.75;;;23.67;71.29
50790;BME280;37287;47.554;7.844;2023-06-26T05:32:56;97949.56;;;24.19;68.62
50790;BME280;37287;47.554;7.844;2023-06-26T05:35:30;97947.81;;;24.41;68.56
50790;BME280;37287;47.554;7.844;2023-06-26T05:37:58;97949.06;;;24.73;68.64
50790;BME280;37287;47.554;7.844;2023-06-26T05:40:25;97955.94;;;25.02;67.73
50790;BME280;37287;47.554;7.844;2023-06-26T05:42:52;97966.03;;;25.38;66.75
50790;BME280;37287;47.554;7.844;2023-06-26T05:45:19;97964.72;;;25.49;66.58
50790;BME280;37287;47.554;7.844;2023-06-26T05:47:45;97957.28;;;25.70;66.23
50790;BME280;37287;47.554;7.844;2023-06-26T05:50:13;97960.75;;;25.80;65.16
50790;BME280;37287;47.554;7.844;2023-06-26T05:52:40;97952.91;;;26.23;64.13
50790;BME280;37287;47.554;7.844;2023-06-26T05:55:07;97954.56;;;26.65;62.52
50790;BME280;37287;47.554;7.844;2023-06-26T05:57:34;97958.22;;;27.13;60.62
50790;BME280;37287;47.554;7.844;2023-06-26T06:00:03;97955.25;;;27.37;59.19
50790;BME280;37287;47.554;7.844;2023-06-26T06:02:32;97954.19;;;27.55;58.00
50790;BME280;37287;47.554;7.844;2023-06-26T06:04:58;97954.72;;;27.59;58.16
50790;BME280;37287;47.554;7.844;2023-06-26T06:07:25;97956.03;;;27.63;57.54
50790;BME280;37287;47.554;7.844;2023-06-26T06:09:52;97953.22;;;27.84;56.26
50790;BME280;37287;47.554;7.844;2023-06-26T06:12:19;97951.69;;;27.83;56.20
50790;BME280;37287;47.554;7.844;2023-06-26T06:14:45;97959.22;;;27.77;56.54
50790;BME280;37287;47.554;7.844;2023-06-26T06:17:12;97958.75;;;27.58;56.03
50790;BME280;37287;47.554;7.844;2023-06-26T06:19:39;97964.88;;;27.62;55.93
50790;BME280;37287;47.554;7.844;2023-06-26T06:22:05;97955.66;;;27.50;55.86
50790;BME280;37287;47.554;7.844;2023-06-26T06:24:32;97955.78;;;27.61;55.49
50790;BME280;37287;47.554;7.844;2023-06-26T06:26:58;97944.22;;;27.69;55.33
50790;BME280;37287;47.554;7.844;2023-06-26T06:29:25;97955.38;;;27.27;55.83
50790;BME280;37287;47.554;7.844;2023-06-26T06:31:52;97956.94;;;27.34;55.97
50790;BME280;37287;47.554;7.844;2023-06-26T06:34:19;97959.94;;;27.51;55.32
50790;BME280;37287;47.554;7.844;2023-06-26T06:36:47;97956.59;;;27.68;53.63
50790;BME280;37287;47.554;7.844;2023-06-26T06:39:13;97956.34;;;27.45;54.47
50790;BME280;37287;47.554;7.844;2023-06-26T06:41:40;97964.13;;;27.20;54.83
50790;BME280;37287;47.554;7.844;2023-06-26T06:44:09;97954.03;;;27.23;53.94
50790;BME280;37287;47.554;7.844;2023-06-26T06:46:35;97959.53;;;27.17;54.39
50790;BME280;37287;47.554;7.844;2023-06-26T06:49:02;97961.19;;;26.88;54.59
50790;BME280;37287;47.554;7.844;2023-06-26T06:51:30;97963.84;;;26.62;55.38
50790;BME280;37287;47.554;7.844;2023-06-26T06:53:57;97960.00;;;26.74;54.83
50790;BME280;37287;47.554;7.844;2023-06-26T06:56:25;97953.63;;;26.53;54.71
50790;BME280;37287;47.554;7.844;2023-06-26T06:58:54;97958.06;;;26.30;56.10
50790;BME280;37287;47.554;7.844;2023-06-26T07:01:21;97956.94;;;26.22;56.18
50790;BME280;37287;47.554;7.844;2023-06-26T07:03:47;97952.78;;;26.32;55.40
50790;BME280;37287;47.554;7.844;2023-06-26T07:06:14;97955.31;;;26.30;56.08
50790;BME280;37287;47.554;7.844;2023-06-26T07:08:43;97954.66;;;26.71;54.77
50790;BME280;37287;47.554;7.844;2023-06-26T07:11:10;97958.28;;;26.77;54.12
50790;BME280;37287;47.554;7.844;2023-06-26T07:13:40;97954.13;;;27.08;54.37
50790;BME280;37287;47.554;7.844;2023-06-26T07:16:07;97958.97;;;27.34;53.88
50790;BME280;37287;47.554;7.844;2023-06-26T07:18:37;97969.56;;;27.50;53.59
50790;BME280;37287;47.554;7.844;2023-06-26T07:21:03;97961.25;;;27.82;53.57
50790;BME280;37287;47.554;7.844;2023-06-26T07:23:30;97964.75;;;28.29;52.08
50790;BME280;37287;47.554;7.844;2023-06-26T07:25:56;97952.97;;;28.84;51.01
50790;BME280;37287;47.554;7.844;2023-06-26T07:28:23;97957.66;;;29.15;49.28
50790;BME280;37287;47.554;7.844;2023-06-26T07:30:52;97967.94;;;29.52;48.12
50790;BME280;37287;47.554;7.844;2023-06-26T07:33:19;97970.75;;;29.63;47.62
50790;BME280;37287;47.554;7.844;2023-06-26T07:35:47;97958.84;;;29.68;47.84
50790;BME280;37287;47.554;7.844;2023-06-26T07:38:13;97966.78;;;29.93;47.36
50790;BME280;37287;47.554;7.844;2023-06-26T07:40:40;97957.38;;;29.84;47.29
50790;BME280;37287;47.554;7.844;2023-06-26T07:43:09;97962.72;;;29.94;47.10
50790;BME280;37287;47.554;7.844;2023-06-26T07:45:36;97962.91;;;29.79;47.51
50790;BME280;37287;47.554;7.844;2023-06-26T07:48:02;97960.09;;;29.67;48.18
50790;BME280;37287;47.554;7.844;2023-06-26T07:50:29;97959.56;;;29.52;48.38
50790;BME280;37287;47.554;7.844;2023-06-26T07:52:55;97956.78;;;29.52;47.76
50790;BME280;37287;47.554;7.844;2023-06-26T07:55:22;97953.94;;;29.35;47.71
50790;BME280;37287;47.554;7.844;2023-06-26T07:57:49;97954.25;;;29.48;47.33
50790;BME280;37287;47.554;7.844;2023-06-26T08:00:18;97957.94;;;29.17;47.15
50790;BME280;37287;47.554;7.844;2023-06-26T08:02:48;97951.31;;;29.14;47.16
50790;BME280;37287;47.554;7.844;2023-06-26T08:05:15;97956.19;;;28.39;48.67
50790;BME280;37287;47.554;7.844;2023-06-26T08:07:44;97958.22;;;27.80;49.94
50790;BME280;37287;47.554;7.844;2023-06-26T08:10:11;97960.59;;;27.67;50.02
50790;BME280;37287;47.554;7.844;2023-06-26T08:12:37;97957.16;;;27.51;49.79
50790;BME280;37287;47.554;7.844;2023-06-26T08:15:07;97958.22;;;27.54;49.60
50790;BME280;37287;47.554;7.844;2023-06-26T08:17:35;97962.13;;;27.21;50.39
50790;BME280;37287;47.554;7.844;2023-06-26T08:20:04;97950.09;;;27.29;50.66
50790;BME280;37287;47.554;7.844;2023-06-26T08:22:31;97961.09;;;27.39;50.53
50790;BME280;37287;47.554;7.844;2023-06-26T08:24:58;97951.13;;;27.79;49.77
50790;BME280;37287;47.554;7.844;2023-06-26T08:27:25;97951.44;;;28.13;49.35
50790;BME280;37287;47.554;7.844;2023-06-26T08:29:51;97951.16;;;28.43;48.67
50790;BME280;37287;47.554;7.844;2023-06-26T08:32:18;97954.75;;;28.49;47.96
50790;BME280;37287;47.554;7.844;2023-06-26T08:34:45;97950.69;;;27.86;49.28
50790;BME280;37287;47.554;7.844;2023-06-26T08:37:14;97957.28;;;28.47;48.05
50790;BME280;37287;47.554;7.844;2023-06-26T08:39:42;97952.69;;;28.44;48.08
50790;BME280;37287;47.554;7.844;2023-06-26T08:42:09;97956.28;;;28.50;47.75
50790;BME280;37287;47.554;7.844;2023-06-26T08:44:37;97951.94;;;28.43;48.12
50790;BME280;37287;47.554;7.844;2023-06-26T08:47:22;97948.72;;;28.56;48.32
50790;BME280;37287;47.554;7.844;2023-06-26T08:50:13;97947.94;;;28.56;47.58
50790;BME280;37287;47.554;7.844;2023-06-26T08:52:54;97944.06;;;28.42;48.84
50790;BME280;37287;47.554;7.844;2023-06-26T08:55:23;97947.97;;;28.18;49.47
50790;BME280;37287;47.554;7.844;2023-06-26T08:57:51;97942.03;;;28.05;49.93
50790;BME280;37287;47.554;7.844;2023-06-26T09:00:20;97940.94;;;28.28;49.54
50790;BME280;37287;47.554;7.844;2023-06-26T09:02:47;97942.94;;;28.22;49.44
50790;BME280;37287;47.554;7.844;2023-06-26T09:05:14;97940.06;;;28.48;48.96
50790;BME280;37287;47.554;7.844;2023-06-26T09:07:41;97945.50;;;28.31;48.50
50790;BME280;37287;47.554;7.844;2023-06-26T09:10:08;97953.56;;;28.24;49.23
50790;BME280;37287;47.554;7.844;2023-06-26T09:12:36;97941.84;;;28.14;49.18
50790;BME280;37287;47.554;7.844;2023-06-26T09:15:07;97944.34;;;28.44;48.64
50790;BME280;37287;47.554;7.844;2023-06-26T09:17:39;97951.91;;;28.38;48.45
50790;BME280;37287;47.554;7.844;2023-06-26T09:20:11;97948.94;;;28.53;48.66
50790;BME280;37287;47.554;7.844;2023-06-26T09:22:41;97946.78;;;28.68;48.64
50790;BME280;37287;47.554;7.844;2023-06-26T09:25:09;97948.06;;;28.73;48.44
50790;BME280;37287;47.554;7.844;2023-06-26T09:27:36;97949.13;;;28.38;48.96
50790;BME280;37287;47.554;7.844;2023-06-26T09:30:03;97949.47;;;28.57;49.25
50790;BME280;37287;47.554;7.844;2023-06-26T09:32:30;97948.66;;;28.45;49.28
50790;BME280;37287;47.554;7.844;2023-06-26T09:34:57;97947.69;;;28.54;48.81
50790;BME280;37287;47.554;7.844;2023-06-26T09:37:24;97937.34;;;28.60;48.68
50790;BME280;37287;47.554;7.844;2023-06-26T09:39:57;97938.69;;;28.64;49.22
50790;BME280;37287;47.554;7.844;2023-06-26T09:42:24;97944.84;;;28.42;49.38
50790;BME280;37287;47.554;7.844;2023-06-26T09:44:51;97947.50;;;28.25;49.43
50790;BME280;37287;47.554;7.844;2023-06-26T09:47:21;97943.16;;;28.56;49.88
50790;BME280;37287;47.554;7.844;2023-06-26T09:49:50;97943.88;;;28.89;48.50
50790;BME280;37287;47.554;7.844;2023-06-26T09:52:19;97938.13;;;29.15;48.43
50790;BME280;37287;47.554;7.844;2023-06-26T09:54:48;97943.63;;;28.92;48.63
50790;BME280;37287;47.554;7.844;2023-06-26T09:57:18;97937.97;;;29.24;48.59
50790;BME280;37287;47.554;7.844;2023-06-26T09:59:45;97942.53;;;29.27;48.82
50790;BME280;37287;47.554;7.844;2023-06-26T10:02:12;97939.00;;;29.32;48.53
50790;BME280;37287;47.554;7.844;2023-06-26T10:04:39;97948.13;;;29.39;48.37
50790;BME280;37287;47.554;7.844;2023-06-26T10:07:08;97933.16;;;29.30;48.75
50790;BME280;37287;47.554;7.844;2023-06-26T10:09:41;97944.22;;;29.13;48.26
50790;BME280;37287;47.554;7.844;2023-06-26T10:12:23;97951.50;;;28.99;48.28
50790;BME280;37287;47.554;7.844;2023-06-26T10:14:53;97956.34;;;29.05;48.83
50790;BME280;37287;47.554;7.844;2023-06-26T10:17:20;97963.13;;;28.92;48.74
50790;BME280;37287;47.554;7.844;2023-06-26T10:19:48;97967.41;;;28.50;48.54
50790;BME280;37287;47.554;7.844;2023-06-26T10:22:16;97954.84;;;28.28;49.42
50790;BME280;37287;47.554;7.844;2023-06-26T10:24:45;97957.34;;;28.21;49.58
50790;BME280;37287;47.554;7.844;2023-06-26T10:27:17;97954.72;;;28.11;49.51
50790;BME280;37287;47.554;7.844;2023-06-26T10:29:51;97967.03;;;28.31;49.42
50790;BME280;37287;47.554;7.844;2023-06-26T10:32:20;97970.03;;;28.27;50.05
50790;BME280;37287;47.554;7.844;2023-06-26T10:34:48;97970.69;;;28.11;50.11
50790;BME280;37287;47.554;7.844;2023-06-26T10:37:15;97974.41;;;28.08;50.04
50790;BME280;37287;47.554;7.844;2023-06-26T10:39:51;97978.34;;;27.95;50.56
50790;BME280;37287;47.554;7.844;2023-06-26T10:42:34;97989.09;;;27.82;51.23
50790;BME280;37287;47.554;7.844;2023-06-26T10:45:14;97993.28;;;27.72;49.99
50790;BME280;37287;47.554;7.844;2023-06-26T10:47:42;97986.00;;;27.54;50.79
50790;BME280;37287;47.554;7.844;2023-06-26T10:50:19;97987.19;;;27.47;51.86
50790;BME280;37287;47.554;7.844;2023-06-26T10:53:11;97986.78;;;27.54;51.69
50790;BME280;37287;47.554;7.844;2023-06-26T10:55:43;97995.13;;;27.34;51.68
50790;BME280;37287;47.554;7.844;2023-06-26T10:58:48;97999.78;;;27.22;52.25
50790;BME280;37287;47.554;7.844;2023-06-26T11:06:24;97986.69;;;26.87;52.48
50790;BME280;37287;47.554;7.844;2023-06-26T11:14:21;97986.97;;;27.30;51.16
50790;BME280;37287;47.554;7.844;2023-06-26T11:16:48;97987.97;;;27.48;50.94
50790;BME280;37287;47.554;7.844;2023-06-26T11:19:19;97988.03;;;27.53;50.76
50790;BME280;37287;47.554;7.844;2023-06-26T11:21:47;98000.88;;;27.30;50.80
50790;BME280;37287;47.554;7.844;2023-06-26T11:24:13;98003.66;;;27.09;51.32
50790;BME280;37287;47.554;7.844;2023-06-26T11:26:41;97999.84;;;27.07;51.20
50790;BME280;37287;47.554;7.844;2023-06-26T11:29:09;98003.06;;;27.20;51.27
50790;BME280;37287;47.554;7.844;2023-06-26T11:31:38;97994.56;;;27.29;51.31
50790;BME280;37287;47.554;7.844;2023-06-26T11:34:07;98007.56;;;27.18;51.14
50790;BME280;37287;47.554;7.844;2023-06-26T11:36:35;97999.97;;;27.18;51.50
50790;BME280;37287;47.554;7.844;2023-06-26T11:39:05;98004.44;;;27.31;51.50
50790;BME280;37287;47.554;7.844;2023-06-26T11:41:34;97999.41;;;27.14;51.00
50790;BME280;37287;47.554;7.844;2023-06-26T11:44:04;97992.75;;;27.06;51.09
50790;BME280;37287;47.554;7.844;2023-06-26T11:46:31;98003.66;;;27.09;51.10
50790;BME280;37287;47.554;7.844;2023-06-26T11:48:58;97997.88;;;27.13;51.55
50790;BME280;37287;47.554;7.844;2023-06-26T11:51:28;98002.50;;;27.16;50.95
50790;BME280;37287;47.554;7.844;2023-06-26T11:53:57;98007.06;;;27.19;51.07
50790;BME280;37287;47.554;7.844;2023-06-26T11:56:24;98015.69;;;27.21;51.06
50790;BME280;37287;47.554;7.844;2023-06-26T11:59:05;98009.44;;;27.26;51.06
50790;BME280;37287;47.554;7.844;2023-06-26T12:01:36;98005.03;;;27.35;50.84
50790;BME280;37287;47.554;7.844;2023-06-26T12:04:06;98002.06;;;27.44;50.75
50790;BME280;37287;47.554;7.844;2023-06-26T12:06:35;97997.34;;;27.29;51.07
50790;BME280;37287;47.554;7.844;2023-06-26T12:09:05;97988.72;;;27.27;50.60
50790;BME280;37287;47.554;7.844;2023-06-26T12:11:33;97992.63;;;27.36;51.26
50790;BME280;37287;47.554;7.844;2023-06-26T12:14:00;97993.31;;;27.51;50.48
50790;BME280;37287;47.554;7.844;2023-06-26T12:16:30;97993.53;;;27.48;50.53
50790;BME280;37287;47.554;7.844;2023-06-26T12:18:59;97984.00;;;27.54;50.45
50790;BME280;37287;47.554;7.844;2023-06-26T12:24:04;97988.31;;;27.55;50.21
50790;BME280;37287;47.554;7.844;2023-06-26T12:26:31;97987.75;;;27.51;50.54
50790;BME280;37287;47.554;7.844;2023-06-26T12:29:09;97988.25;;;27.50;50.39
50790;BME280;37287;47.554;7.844;2023-06-26T12:31:45;97986.38;;;27.61;50.75
50790;BME280;37287;47.554;7.844;2023-06-26T12:34:13;97990.16;;;27.64;49.72
50790;BME280;37287;47.554;7.844;2023-06-26T12:36:50;97999.53;;;27.67;48.51
50790;BME280;37287;47.554;7.844;2023-06-26T12:39:20;97994.97;;;27.63;49.06
50790;BME280;37287;47.554;7.844;2023-06-26T12:41:56;98004.63;;;27.68;48.44
50790;BME280;37287;47.554;7.844;2023-06-26T12:44:27;98002.69;;;27.74;47.34
50790;BME280;37287;47.554;7.844;2023-06-26T12:46:57;97996.81;;;27.72;47.50
50790;BME280;37287;47.554;7.844;2023-06-26T12:49:37;97994.34;;;27.74;47.08
50790;BME280;37287;47.554;7.844;2023-06-26T12:52:06;97986.47;;;27.73;47.62
50790;BME280;37287;47.554;7.844;2023-06-26T12:54:37;97984.59;;;27.64;47.40
50790;BME280;37287;47.554;7.844;2023-06-26T12:57:05;97993.06;;;27.75;47.37
50790;BME280;37287;47.554;7.844;2023-06-26T12:59:33;97992.59;;;27.77;47.54
50790;BME280;37287;47.554;7.844;2023-06-26T13:02:00;97988.09;;;27.85;47.57
50790;BME280;37287;47.554;7.844;2023-06-26T13:04:27;97980.03;;;27.87;47.08
50790;BME280;37287;47.554;7.844;2023-06-26T13:06:54;97982.38;;;27.94;47.03
50790;BME280;37287;47.554;7.844;2023-06-26T13:09:22;97984.72;;;27.75;46.82
50790;BME280;37287;47.554;7.844;2023-06-26T13:11:51;97974.19;;;27.85;47.19
50790;BME280;37287;47.554;7.844;2023-06-26T13:14:17;97970.06;;;27.75;46.46
50790;BME280;37287;47.554;7.844;2023-06-26T13:16:44;97971.78;;;27.72;46.93
50790;BME280;37287;47.554;7.844;2023-06-26T13:19:12;97970.41;;;27.83;47.66
50790;BME280;37287;47.554;7.844;2023-06-26T13:21:38;97971.34;;;28.00;47.26
50790;BME280;37287;47.554;7.844;2023-06-26T13:24:05;97977.16;;;28.02;47.18
50790;BME280;37287;47.554;7.844;2023-06-26T13:26:34;97971.13;;;28.04;46.68
50790;BME280;37287;47.554;7.844;2023-06-26T13:29:03;97969.69;;;28.14;46.72